Time;durP1;ratioP1;P1;durP2;ratioP2;P2;SDS_P1;SDS_P2;PMS_P1;PMS_P2;Temp;Humidity;BMP_temperature;BMP_pressure;BME280_temperature;BME280_humidity;BME280_pressure;Samples;Min_cycle;Max_cycle;Signal;HPM_P1;HPM_P2
2021/05/10 00:01:36;;;;;;;8.23;7.73;;;23.40;68.10;;;;;;3566880;40;20468;-52
2021/05/10 00:04:04;;;;;;;7.33;6.93;;;23.40;68.10;;;;;;3556718;40;20487;-52
2021/05/10 00:06:31;;;;;;;8.23;7.63;;;23.40;68.10;;;;;;3567428;40;20517;-52
2021/05/10 00:09:02;;;;;;;7.83;7.40;;;23.40;68.10;;;;;;3566929;40;20507;-53
2021/05/10 00:11:28;;;;;;;7.20;6.80;;;23.40;68.10;;;;;;3556620;40;20476;-53
2021/05/10 00:13:56;;;;;;;8.27;7.63;;;23.40;68.10;;;;;;3566080;40;20531;-54
2021/05/10 00:16:22;;;;;;;7.50;7.10;;;23.40;68.10;;;;;;3566729;40;20484;-51
2021/05/10 00:18:50;;;;;;;8.10;7.70;;;23.40;68.20;;;;;;3566929;40;20472;-53
2021/05/10 00:21:17;;;;;;;7.43;6.93;;;23.40;68.20;;;;;;3557152;40;20519;-51
2021/05/10 00:23:44;;;;;;;7.20;6.80;;;23.40;68.20;;;;;;3566909;40;20480;-53
2021/05/10 00:26:10;;;;;;;9.20;7.50;;;23.40;68.20;;;;;;3566323;40;20500;-51
2021/05/10 00:28:37;;;;;;;9.32;8.65;;;23.40;69.00;;;;;;3565746;40;20721;-52
2021/05/10 00:31:04;;;;;;;7.77;7.37;;;23.40;68.20;;;;;;3565834;40;20224;-52
2021/05/10 00:33:31;;;;;;;7.63;7.23;;;23.40;68.30;;;;;;3565739;40;20496;-54
2021/05/10 00:36:00;;;;;;;7.50;7.10;;;23.40;68.20;;;;;;3566377;40;20836;-51
2021/05/10 00:38:26;;;;;;;7.27;6.97;;;23.40;68.30;;;;;;3566591;40;21271;-51
2021/05/10 00:40:53;;;;;;;7.25;6.85;;;23.40;68.30;;;;;;3566848;40;20478;-51
2021/05/10 00:43:20;;;;;;;7.10;6.70;;;23.40;68.30;;;;;;3567228;40;20222;-55
2021/05/10 00:45:47;;;;;;;7.13;6.83;;;23.40;68.20;;;;;;3567278;40;20550;-51
2021/05/10 00:48:17;;;;;;;7.13;6.73;;;23.40;68.20;;;;;;3566839;40;20485;-51
2021/05/10 00:50:45;;;;;;;7.60;7.10;;;23.40;68.20;;;;;;3566926;40;20484;-51
2021/05/10 00:53:12;;;;;;;7.20;6.80;;;23.40;69.00;;;;;;3567056;40;20479;-53
2021/05/10 00:55:38;;;;;;;7.47;6.80;;;23.40;68.20;;;;;;3566032;40;20461;-52
2021/05/10 00:58:06;;;;;;;7.40;6.93;;;23.30;68.10;;;;;;3566583;40;20537;-51
2021/05/10 01:00:36;;;;;;;7.30;6.90;;;23.30;68.10;;;;;;3566336;40;20487;-53
2021/05/10 01:03:08;;;;;;;6.80;6.50;;;23.30;68.10;;;;;;3566328;40;20558;-51
2021/05/10 01:05:37;;;;;;;7.73;7.33;;;23.30;68.10;;;;;;3566983;40;20479;-51
2021/05/10 01:08:05;;;;;;;7.57;7.18;;;23.40;68.30;;;;;;3566520;40;20725;-52
2021/05/10 01:10:33;;;;;;;7.77;7.03;;;23.30;68.20;;;;;;3566550;40;20224;-51
2021/05/10 01:12:59;;;;;;;7.70;7.20;;;23.30;68.20;;;;;;3567075;40;20500;-51
2021/05/10 01:15:26;;;;;;;7.53;7.13;;;23.30;68.20;;;;;;3567172;40;20490;-54
2021/05/10 01:17:54;;;;;;;6.77;6.47;;;23.30;68.20;;;;;;3565942;40;20481;-51
2021/05/10 01:20:22;;;;;;;6.87;6.37;;;23.30;68.20;;;;;;3565560;40;20491;-51
2021/05/10 01:22:51;;;;;;;6.50;6.20;;;23.30;68.20;;;;;;3566173;40;21161;-54
2021/05/10 01:25:21;;;;;;;6.90;6.60;;;23.30;68.20;;;;;;3566231;40;20480;-52
2021/05/10 01:27:49;;;;;;;6.53;6.23;;;23.30;68.20;;;;;;3566337;40;20493;-52
2021/05/10 01:30:18;;;;;;;6.90;6.47;;;23.30;68.20;;;;;;3566795;40;20531;-54
2021/05/10 01:32:45;;;;;;;6.80;6.43;;;23.30;68.20;;;;;;3566071;40;20254;-54
2021/05/10 01:35:14;;;;;;;6.82;6.53;;;23.30;68.20;;;;;;3566974;40;20495;-52
2021/05/10 01:37:41;;;;;;;6.77;6.47;;;23.30;68.30;;;;;;3567791;40;20451;-53
2021/05/10 01:40:11;;;;;;;7.47;7.00;;;23.30;68.20;;;;;;3568766;40;20479;-51
2021/05/10 01:42:38;;;;;;;7.45;7.10;;;23.30;68.20;;;;;;3567873;40;20476;-53
2021/05/10 01:45:06;;;;;;;7.13;6.43;;;23.30;68.20;;;;;;3558635;40;20225;-53
2021/05/10 01:47:34;;;;;;;7.53;6.93;;;23.30;68.30;;;;;;3568161;40;20514;-53
2021/05/10 01:50:07;;;;;;;7.27;6.87;;;23.30;68.30;;;;;;3559046;40;20571;-52
2021/05/10 01:52:34;;;;;;;8.10;7.37;;;23.30;68.20;;;;;;3567214;40;20872;-55
2021/05/10 01:55:00;;;;;;;7.20;6.70;;;23.30;68.20;;;;;;3568197;40;20819;-53
2021/05/10 01:57:28;;;;;;;7.10;6.70;;;23.30;68.20;;;;;;3567520;40;20541;-52
2021/05/10 01:59:55;;;;;;;7.83;7.20;;;23.30;68.20;;;;;;3567865;40;20476;-51
2021/05/10 02:02:22;;;;;;;7.23;6.93;;;23.30;68.20;;;;;;3567676;40;20570;-51
2021/05/10 02:05:07;;;;;;;8.00;7.60;;;23.30;68.20;;;;;;3558861;40;20805;-52
2021/05/10 02:07:36;;;;;;;7.97;7.53;;;23.30;68.20;;;;;;3567514;40;20525;-52
2021/05/10 02:10:05;;;;;;;7.40;7.10;;;23.30;68.30;;;;;;3558494;40;20876;-52
2021/05/10 02:12:33;;;;;;;8.07;7.60;;;23.30;68.30;;;;;;3567510;40;20874;-51
2021/05/10 02:14:59;;;;;;;7.40;6.90;;;23.30;68.30;;;;;;3567693;40;20832;-52
2021/05/10 02:17:27;;;;;;;7.60;7.20;;;23.30;68.30;;;;;;3567745;40;20469;-54
2021/05/10 02:19:54;;;;;;;7.13;6.83;;;23.30;68.30;;;;;;3557746;40;20575;-52
2021/05/10 02:22:21;;;;;;;7.37;6.87;;;23.30;68.40;;;;;;3567287;40;20481;-52
2021/05/10 02:24:47;;;;;;;7.80;7.30;;;23.30;68.40;;;;;;3567773;40;20878;-52
2021/05/10 02:27:14;;;;;;;7.53;7.03;;;23.30;68.40;;;;;;3567531;40;20483;-52
2021/05/10 02:29:42;;;;;;;7.13;6.63;;;23.30;68.40;;;;;;3558666;40;20492;-51
2021/05/10 02:32:08;;;;;;;7.30;6.90;;;23.20;68.30;;;;;;3567454;40;20487;-51
2021/05/10 02:34:36;;;;;;;7.17;6.80;;;23.20;68.40;;;;;;3558697;40;20760;-52
2021/05/10 02:37:02;;;;;;;7.10;6.73;;;23.30;68.50;;;;;;3568011;40;20468;-54
2021/05/10 02:39:29;;;;;;;6.70;6.40;;;23.20;68.30;;;;;;3559347;40;20491;-52
2021/05/10 02:41:56;;;;;;;7.30;6.90;;;23.30;68.50;;;;;;3566939;40;20502;-54
2021/05/10 02:44:22;;;;;;;7.50;7.00;;;23.30;68.50;;;;;;3567954;40;20493;-54
2021/05/10 02:46:51;;;;;;;7.17;6.70;;;23.30;68.40;;;;;;3566758;40;20918;-52
2021/05/10 02:49:18;;;;;;;7.17;6.87;;;23.20;68.40;;;;;;3566842;40;20483;-53
2021/05/10 02:51:46;;;;;;;7.33;6.83;;;23.20;68.30;;;;;;3557208;40;20493;-54
2021/05/10 02:54:28;;;;;;;7.23;6.83;;;23.20;68.40;;;;;;3566825;40;20496;-53
2021/05/10 02:56:56;;;;;;;7.38;7.05;;;23.20;68.30;;;;;;3557665;40;20507;-51
2021/05/10 02:59:23;;;;;;;7.43;6.83;;;23.20;68.40;;;;;;3566936;40;20234;-52
2021/05/10 03:01:49;;;;;;;7.47;7.00;;;23.20;68.40;;;;;;3566484;40;20566;-51
2021/05/10 03:04:17;;;;;;;7.13;6.70;;;23.20;68.40;;;;;;3557478;40;20485;-52
2021/05/10 03:06:43;;;;;;;7.10;6.70;;;23.20;68.30;;;;;;3566504;40;20499;-52
2021/05/10 03:09:10;;;;;;;8.20;7.60;;;23.20;68.80;;;;;;3566906;40;20477;-51
2021/05/10 03:11:37;;;;;;;7.10;6.80;;;23.20;68.30;;;;;;3566987;40;20751;-52
2021/05/10 03:14:05;;;;;;;7.40;7.00;;;23.20;68.30;;;;;;3566827;40;20511;-51
2021/05/10 03:16:32;;;;;;;7.20;6.90;;;23.20;68.30;;;;;;3567214;40;20257;-53
2021/05/10 03:18:58;;;;;;;7.70;7.30;;;23.20;68.30;;;;;;3557041;40;20489;-54
2021/05/10 03:21:26;;;;;;;7.57;7.10;;;23.20;68.70;;;;;;3566091;40;20507;-51
2021/05/10 03:23:53;;;;;;;7.77;7.37;;;23.20;68.30;;;;;;3566995;40;20479;-51
2021/05/10 03:26:20;;;;;;;7.63;7.23;;;23.20;68.30;;;;;;3567559;40;20937;-51
2021/05/10 03:28:48;;;;;;;7.37;7.07;;;23.20;68.20;;;;;;3566505;40;20477;-54
2021/05/10 03:31:14;;;;;;;7.80;7.40;;;23.20;68.20;;;;;;3566275;40;20472;-51
2021/05/10 03:33:42;;;;;;;8.23;7.83;;;23.20;68.10;;;;;;3565437;40;20491;-52
2021/05/10 03:36:09;;;;;;;8.73;7.83;;;23.20;68.10;;;;;;3566180;40;20464;-52
2021/05/10 03:38:37;;;;;;;8.50;8.07;;;23.20;68.10;;;;;;3564593;40;20481;-52
2021/05/10 03:41:03;;;;;;;9.37;8.87;;;23.20;68.10;;;;;;3566149;40;20514;-51
2021/05/10 03:43:30;;;;;;;8.10;7.70;;;23.20;68.10;;;;;;3565994;40;20535;-50
2021/05/10 03:45:58;;;;;;;8.60;8.20;;;23.20;68.10;;;;;;3565020;40;21082;-53
2021/05/10 03:48:24;;;;;;;8.20;7.80;;;23.20;68.00;;;;;;3566186;40;20484;-51
2021/05/10 03:50:51;;;;;;;8.75;8.40;;;23.20;68.00;;;;;;3555707;40;20495;-53
2021/05/10 03:53:17;;;;;;;8.90;8.30;;;23.30;68.10;;;;;;3563510;40;20222;-52
2021/05/10 03:55:45;;;;;;;9.00;8.50;;;23.30;68.10;;;;;;3564187;40;20975;-51
2021/05/10 03:58:13;;;;;;;8.70;8.30;;;23.30;68.00;;;;;;3564610;40;20493;-51
2021/05/10 04:00:39;;;;;;;9.10;8.67;;;23.30;67.90;;;;;;3564650;40;20577;-51
2021/05/10 04:03:07;;;;;;;8.80;8.40;;;23.30;67.80;;;;;;3565403;40;20484;-52
2021/05/10 04:05:53;;;;;;;8.63;8.17;;;23.40;67.80;;;;;;3564225;40;20480;-54
2021/05/10 04:08:40;;;;;;;9.40;8.90;;;23.40;67.80;;;;;;3566246;40;20500;-55
2021/05/10 04:11:11;;;;;;;8.33;7.93;;;23.50;67.80;;;;;;3555656;40;21084;-53
2021/05/10 04:13:40;;;;;;;9.60;9.10;;;23.50;67.70;;;;;;3564679;40;20941;-52
2021/05/10 04:16:07;;;;;;;9.20;8.80;;;23.50;67.70;;;;;;3563397;40;20471;-51
2021/05/10 04:18:36;;;;;;;8.77;8.37;;;23.50;67.60;;;;;;3564600;40;20727;-52
2021/05/10 04:21:05;;;;;;;8.67;8.27;;;23.50;67.50;;;;;;3555468;40;20578;-53
2021/05/10 04:23:32;;;;;;;8.97;8.57;;;23.60;67.50;;;;;;3564365;40;20725;-55
2021/05/10 04:26:00;;;;;;;9.77;9.10;;;23.60;67.40;;;;;;3563664;40;20483;-52
2021/05/10 04:28:27;;;;;;;9.00;8.60;;;23.60;67.40;;;;;;3564945;40;20700;-51
2021/05/10 04:30:55;;;;;;;9.33;8.83;;;23.70;67.40;;;;;;3564630;40;20518;-52
2021/05/10 04:33:26;;;;;;;9.50;8.70;;;23.70;67.30;;;;;;3562473;40;20600;-53
2021/05/10 04:35:54;;;;;;;9.60;9.10;;;23.70;67.20;;;;;;3553839;40;21152;-55
2021/05/10 04:38:21;;;;;;;9.73;9.23;;;23.80;67.30;;;;;;3564259;40;20855;-52
2021/05/10 04:40:49;;;;;;;9.50;9.10;;;23.80;67.20;;;;;;3563318;40;20478;-52
2021/05/10 04:43:16;;;;;;;9.80;9.30;;;23.80;67.10;;;;;;3563247;40;20481;-52
2021/05/10 04:45:45;;;;;;;8.82;8.43;;;23.80;67.10;;;;;;3562682;40;20483;-54
2021/05/10 04:48:11;;;;;;;9.90;9.10;;;23.80;66.90;;;;;;3553399;40;20480;-55
2021/05/10 04:50:39;;;;;;;8.40;8.10;;;23.90;66.90;;;;;;3562914;40;20485;-53
2021/05/10 04:53:11;;;;;;;9.87;9.20;;;23.90;66.90;;;;;;3562099;40;20485;-53
2021/05/10 04:55:38;;;;;;;8.53;8.10;;;23.90;66.80;;;;;;3561681;40;20614;-53
2021/05/10 04:58:08;;;;;;;8.10;7.80;;;23.90;66.70;;;;;;3560908;40;20754;-55
2021/05/10 05:00:35;;;;;;;10.03;9.30;;;24.00;66.70;;;;;;3561090;40;20537;-54
2021/05/10 05:03:03;;;;;;;9.80;9.20;;;24.00;66.70;;;;;;3561636;40;20488;-52
2021/05/10 05:05:31;;;;;;;8.90;8.50;;;24.00;66.60;;;;;;3560719;40;20490;-51
2021/05/10 05:07:58;;;;;;;9.00;8.63;;;24.00;66.50;;;;;;3560282;40;20489;-53
2021/05/10 05:10:26;;;;;;;9.10;8.70;;;24.00;66.40;;;;;;3560486;40;20494;-52
2021/05/10 05:12:53;;;;;;;9.70;8.87;;;24.00;66.40;;;;;;3561989;40;20486;-52
2021/05/10 05:15:22;;;;;;;9.90;9.40;;;24.10;66.40;;;;;;3561210;40;20596;-53
2021/05/10 05:17:50;;;;;;;13.47;9.20;;;24.10;66.60;;;;;;3559502;40;20483;-52
2021/05/10 05:20:18;;;;;;;9.20;8.77;;;24.10;66.70;;;;;;3560021;40;20607;-52
2021/05/10 05:22:46;;;;;;;10.47;9.77;;;24.10;66.60;;;;;;3561304;40;20575;-53
2021/05/10 05:25:15;;;;;;;10.83;10.10;;;24.10;65.30;;;;;;3560470;40;21109;-55
2021/05/10 05:27:43;;;;;;;9.93;9.13;;;24.10;63.70;;;;;;3558841;40;20482;-55
2021/05/10 05:30:12;;;;;;;9.53;8.93;;;24.00;62.60;;;;;;3558709;40;20584;-55
2021/05/10 05:32:39;;;;;;;10.27;9.67;;;24.00;63.10;;;;;;3549847;40;20497;-53
2021/05/10 05:35:11;;;;;;;10.67;9.97;;;23.90;62.50;;;;;;3545529;40;20924;-55
2021/05/10 05:37:38;;;;;;;15.10;11.73;;;23.80;62.60;;;;;;3548071;40;20475;-55
2021/05/10 05:40:07;;;;;;;11.00;10.10;;;23.70;63.40;;;;;;3549786;40;20505;-53
2021/05/10 05:42:35;;;;;;;11.67;10.73;;;23.70;63.50;;;;;;3545414;40;20252;-52
2021/05/10 05:45:02;;;;;;;13.73;10.70;;;23.60;63.60;;;;;;3547034;40;20599;-55
2021/05/10 05:47:29;;;;;;;11.60;10.80;;;23.60;64.20;;;;;;3545378;40;20566;-55
2021/05/10 05:49:56;;;;;;;16.43;12.00;;;23.60;64.30;;;;;;3543666;40;20480;-55
2021/05/10 05:52:24;;;;;;;10.03;9.33;;;23.60;64.60;;;;;;3543495;40;20482;-54
2021/05/10 05:54:53;;;;;;;10.03;9.50;;;23.60;64.50;;;;;;3545016;40;20809;-54
2021/05/10 05:57:21;;;;;;;11.77;10.67;;;23.60;64.60;;;;;;3544693;40;20488;-56
2021/05/10 05:59:49;;;;;;;11.43;10.47;;;23.60;65.10;;;;;;3543263;40;20587;-54
2021/05/10 06:02:17;;;;;;;13.60;10.10;;;23.60;65.50;;;;;;3543224;40;20556;-54
2021/05/10 06:04:43;;;;;;;10.97;10.27;;;23.60;65.10;;;;;;3542788;40;20481;-52
2021/05/10 06:07:11;;;;;;;11.60;10.80;;;23.70;64.90;;;;;;3542076;40;20791;-55
2021/05/10 06:09:38;;;;;;;11.20;10.40;;;23.70;64.90;;;;;;3534341;40;20877;-53
2021/05/10 06:12:08;;;;;;;11.60;10.63;;;23.70;65.20;;;;;;3539224;40;20476;-53
2021/05/10 06:14:34;;;;;;;11.40;10.50;;;23.70;65.50;;;;;;3541842;40;20227;-54
2021/05/10 06:17:01;;;;;;;11.73;10.63;;;23.70;65.80;;;;;;3541465;40;20494;-52
2021/05/10 06:19:29;;;;;;;11.97;11.20;;;23.70;65.70;;;;;;3540537;40;20570;-55
2021/05/10 06:21:58;;;;;;;11.67;10.97;;;23.80;65.60;;;;;;3541979;40;20955;-52
2021/05/10 06:24:25;;;;;;;11.23;10.50;;;23.80;65.90;;;;;;3541633;40;20502;-51
2021/05/10 06:26:51;;;;;;;11.30;10.60;;;23.80;66.10;;;;;;3543017;40;20525;-51
2021/05/10 06:29:20;;;;;;;11.90;10.90;;;23.80;66.30;;;;;;3542253;40;20605;-52
2021/05/10 06:31:47;;;;;;;11.30;10.50;;;23.80;66.40;;;;;;3542212;40;20487;-53
2021/05/10 06:34:14;;;;;;;10.90;10.03;;;23.90;66.60;;;;;;3553189;40;21002;-55
2021/05/10 06:36:42;;;;;;;10.97;10.37;;;23.90;66.70;;;;;;3550822;40;20479;-55
2021/05/10 06:39:10;;;;;;;11.67;10.90;;;24.00;66.90;;;;;;3552081;40;20497;-52
2021/05/10 06:41:38;;;;;;;11.43;10.47;;;24.00;66.80;;;;;;3550296;40;20481;-53
2021/05/10 06:44:06;;;;;;;11.37;10.47;;;24.00;66.80;;;;;;3550659;40;20506;-52
2021/05/10 06:46:33;;;;;;;11.60;10.90;;;24.10;66.80;;;;;;3551209;40;20994;-53
2021/05/10 06:49:01;;;;;;;11.90;10.77;;;24.10;66.80;;;;;;3552107;40;20482;-52
2021/05/10 06:51:27;;;;;;;11.13;10.43;;;24.10;66.90;;;;;;3549730;40;20501;-56
2021/05/10 06:53:54;;;;;;;14.53;10.53;;;24.20;66.80;;;;;;3551839;40;20498;-54
2021/05/10 06:56:23;;;;;;;11.63;10.60;;;24.20;66.90;;;;;;3548868;40;20583;-54
2021/05/10 06:58:50;;;;;;;12.38;11.27;;;24.20;67.00;;;;;;3551467;40;20957;-54
2021/05/10 07:01:18;;;;;;;11.90;11.00;;;24.20;67.10;;;;;;3549700;40;20892;-54
2021/05/10 07:03:46;;;;;;;11.30;10.43;;;24.20;67.10;;;;;;3548977;40;20880;-53
2021/05/10 07:06:14;;;;;;;10.53;9.70;;;24.20;67.20;;;;;;3549615;40;20495;-53
2021/05/10 07:08:41;;;;;;;10.97;10.17;;;24.20;67.30;;;;;;3551109;40;20511;-55
2021/05/10 07:11:09;;;;;;;10.07;9.40;;;24.20;67.30;;;;;;3547690;40;20486;-53
2021/05/10 07:13:36;;;;;;;11.50;10.40;;;24.20;67.40;;;;;;3549696;40;20577;-54
2021/05/10 07:16:04;;;;;;;11.13;10.03;;;24.20;67.40;;;;;;3546711;40;20723;-54
2021/05/10 07:18:31;;;;;;;12.07;11.03;;;24.30;67.40;;;;;;3549106;40;20481;-55
2021/05/10 07:21:00;;;;;;;14.57;10.47;;;24.30;67.50;;;;;;3545804;40;20514;-55
2021/05/10 07:23:27;;;;;;;11.77;10.40;;;24.30;67.60;;;;;;3548080;40;20493;-52
2021/05/10 07:25:54;;;;;;;11.03;10.03;;;24.30;67.70;;;;;;3548329;40;20481;-52
2021/05/10 07:28:21;;;;;;;12.57;11.33;;;24.20;67.70;;;;;;3545641;40;20482;-53
2021/05/10 07:30:50;;;;;;;11.47;10.27;;;24.20;67.80;;;;;;3548882;40;20505;-55
2021/05/10 07:33:17;;;;;;;16.37;11.43;;;24.20;67.90;;;;;;3546622;40;20506;-55
2021/05/10 07:35:45;;;;;;;12.87;10.00;;;24.20;68.10;;;;;;3548014;40;21580;-54
2021/05/10 07:38:13;;;;;;;12.33;9.83;;;24.20;68.10;;;;;;3549270;40;20486;-53
2021/05/10 07:40:41;;;;;;;13.07;10.30;;;24.20;68.90;;;;;;3549836;40;20738;-51
2021/05/10 07:43:08;;;;;;;12.60;11.07;;;24.20;68.30;;;;;;3548689;40;20509;-55
2021/05/10 07:45:35;;;;;;;15.30;12.23;;;24.20;68.50;;;;;;3548366;40;20490;-54
2021/05/10 07:48:01;;;;;;;14.60;11.30;;;24.20;68.60;;;;;;3543957;40;20499;-54
2021/05/10 07:50:29;;;;;;;12.03;10.60;;;24.20;68.70;;;;;;3538660;40;20872;-54
2021/05/10 07:52:56;;;;;;;11.73;10.60;;;24.20;68.70;;;;;;3529920;40;20510;-55
2021/05/10 07:55:25;;;;;;;13.02;10.07;;;24.20;68.70;;;;;;3538401;40;21150;-53
2021/05/10 07:57:53;;;;;;;13.57;10.93;;;24.20;68.80;;;;;;3539183;40;20582;-56
2021/05/10 08:00:27;;;;;;;12.80;10.00;;;24.20;68.80;;;;;;3539583;40;20510;-53
2021/05/10 08:02:57;;;;;;;10.30;9.33;;;24.20;68.80;;;;;;3537678;40;20517;-54
2021/05/10 08:05:24;;;;;;;10.70;9.93;;;24.20;68.90;;;;;;3538294;40;20487;-53
2021/05/10 08:07:51;;;;;;;10.97;10.00;;;24.20;69.00;;;;;;3531227;40;20228;-53
2021/05/10 08:10:18;;;;;;;10.60;9.60;;;24.20;69.20;;;;;;3539198;40;20699;-52
2021/05/10 08:12:48;;;;;;;15.30;9.33;;;24.20;69.30;;;;;;3541467;40;20498;-55
2021/05/10 08:15:19;;;;;;;10.23;9.43;;;24.20;69.80;;;;;;3540192;40;21041;-54
2021/05/10 08:17:46;;;;;;;9.27;8.67;;;24.20;70.00;;;;;;3536431;40;20565;-55
2021/05/10 08:20:15;;;;;;;9.73;8.53;;;24.20;70.30;;;;;;3538882;40;21543;-55
2021/05/10 08:22:43;;;;;;;13.47;9.60;;;24.20;70.60;;;;;;3536941;40;20494;-55
2021/05/10 08:25:12;;;;;;;10.37;9.37;;;24.20;70.70;;;;;;3537270;40;21229;-52
2021/05/10 08:27:38;;;;;;;12.40;9.30;;;24.20;70.90;;;;;;3541502;40;20482;-54
2021/05/10 08:30:11;;;;;;;10.17;9.27;;;24.20;71.10;;;;;;3546551;40;20514;-54
2021/05/10 08:32:40;;;;;;;9.53;8.73;;;24.20;71.00;;;;;;3537865;40;20490;-55
2021/05/10 08:35:09;;;;;;;11.20;8.60;;;24.20;70.80;;;;;;3536736;40;20490;-56
2021/05/10 08:37:37;;;;;;;11.43;9.00;;;24.30;70.90;;;;;;3544348;40;20254;-55
2021/05/10 08:40:05;;;;;;;9.73;9.00;;;24.30;71.00;;;;;;3549330;40;20852;-54
2021/05/10 08:42:32;;;;;;;21.13;12.37;;;24.30;70.80;;;;;;3549560;40;20506;-49
2021/05/10 08:45:00;;;;;;;14.60;11.60;;;24.30;70.70;;;;;;3526836;40;20491;-54
2021/05/10 08:47:32;;;;;;;16.00;12.13;;;24.40;70.60;;;;;;3543623;40;20434;-54
2021/05/10 08:49:59;;;;;;;14.15;11.88;;;24.40;70.80;;;;;;3547551;40;20430;-55
2021/05/10 08:52:28;;;;;;;14.03;12.83;;;24.50;71.00;;;;;;3551803;40;20653;-55
2021/05/10 08:54:55;;;;;;;16.50;14.50;;;24.40;70.70;;;;;;3549192;40;20489;-51
2021/05/10 08:57:22;;;;;;;13.93;12.63;;;24.40;70.90;;;;;;3549910;40;21381;-53
2021/05/10 08:59:49;;;;;;;13.67;12.33;;;24.40;70.90;;;;;;3549306;40;20481;-53
2021/05/10 09:02:30;;;;;;;13.63;12.43;;;24.40;70.90;;;;;;3548698;40;20471;-52
2021/05/10 09:05:11;;;;;;;14.10;12.70;;;24.30;70.70;;;;;;3548655;40;20488;-52
2021/05/10 09:07:40;;;;;;;17.53;16.07;;;24.30;70.80;;;;;;3546893;40;20489;-52
2021/05/10 09:10:08;;;;;;;23.07;16.83;;;24.30;71.90;;;;;;3549902;40;20488;-50
2021/05/10 09:12:42;;;;;;;15.40;14.40;;;24.40;79.00;;;;;;3549154;40;20488;-49
2021/05/10 09:15:22;;;;;;;16.55;15.10;;;24.40;77.40;;;;;;3546555;40;20482;-48
2021/05/10 09:17:52;;;;;;;16.30;14.87;;;24.40;76.70;;;;;;3546295;40;20334;-49
2021/05/10 09:20:21;;;;;;;15.20;13.73;;;24.40;76.20;;;;;;3547152;40;21201;-48
2021/05/10 09:22:55;;;;;;;15.73;13.17;;;24.40;75.70;;;;;;3546469;40;20493;-49
2021/05/10 09:25:30;;;;;;;15.20;13.73;;;24.40;75.00;;;;;;3545718;40;20486;-49
2021/05/10 09:28:13;;;;;;;13.60;12.50;;;24.40;74.50;;;;;;3546970;40;20496;-48
2021/05/10 09:30:41;;;;;;;14.27;13.27;;;24.40;74.30;;;;;;3539025;40;21296;-49
2021/05/10 09:33:16;;;;;;;13.73;12.73;;;24.40;74.30;;;;;;3536629;40;20490;-48
2021/05/10 09:35:44;;;;;;;14.13;13.20;;;24.40;74.20;;;;;;3538888;40;20806;-49
2021/05/10 09:38:11;;;;;;;13.93;13.07;;;24.30;73.90;;;;;;3537701;40;20485;-48
2021/05/10 09:40:46;;;;;;;16.13;13.50;;;24.40;74.00;;;;;;3537756;40;20504;-48
2021/05/10 09:43:17;;;;;;;13.15;12.45;;;24.40;73.80;;;;;;3536227;40;20494;-48
2021/05/10 09:45:46;;;;;;;14.53;12.80;;;24.30;73.40;;;;;;3538549;40;20341;-50
2021/05/10 09:48:30;;;;;;;12.67;11.97;;;24.30;73.30;;;;;;3538230;40;20798;-50
2021/05/10 09:51:01;;;;;;;13.83;12.83;;;24.30;73.30;;;;;;3539865;40;20484;-49
2021/05/10 09:53:40;;;;;;;13.17;12.47;;;24.30;73.20;;;;;;3538834;40;20492;-48
2021/05/10 09:56:11;;;;;;;13.50;12.50;;;24.30;73.10;;;;;;3536385;40;20923;-49
2021/05/10 09:58:43;;;;;;;12.67;11.90;;;24.30;73.10;;;;;;3538651;40;20518;-49
2021/05/10 10:01:11;;;;;;;12.67;11.97;;;24.30;73.10;;;;;;3536261;40;20897;-49
2021/05/10 10:03:41;;;;;;;13.20;12.27;;;24.30;73.00;;;;;;3539628;40;20490;-52
2021/05/10 10:06:11;;;;;;;13.87;12.90;;;24.30;72.90;;;;;;3540019;40;20474;-49
2021/05/10 10:08:40;;;;;;;13.50;12.60;;;24.30;72.90;;;;;;3541385;40;20772;-50
2021/05/10 10:11:09;;;;;;;13.73;12.87;;;24.30;72.80;;;;;;3539020;40;20478;-49
2021/05/10 10:13:36;;;;;;;13.85;12.85;;;24.30;72.60;;;;;;3540506;40;20510;-49
2021/05/10 10:16:07;;;;;;;15.27;14.37;;;24.30;72.50;;;;;;3538946;40;20257;-49
2021/05/10 10:18:36;;;;;;;13.20;12.50;;;24.30;72.50;;;;;;3541406;40;20470;-49
2021/05/10 10:21:04;;;;;;;12.60;11.90;;;24.30;72.30;;;;;;3539222;40;20494;-49
2021/05/10 10:23:33;;;;;;;12.67;11.83;;;24.30;72.20;;;;;;3530907;40;20474;-49
2021/05/10 10:26:04;;;;;;;13.27;12.30;;;24.30;72.10;;;;;;3540124;40;20478;-50
2021/05/10 10:28:33;;;;;;;13.00;12.40;;;24.30;71.90;;;;;;3540162;40;20479;-50
2021/05/10 10:31:03;;;;;;;12.40;11.67;;;24.20;71.70;;;;;;3540739;40;20513;-49
2021/05/10 10:33:36;;;;;;;12.43;11.73;;;24.20;71.70;;;;;;3541467;40;20483;-49
2021/05/10 10:36:08;;;;;;;12.77;12.07;;;24.20;71.50;;;;;;3540851;40;20491;-48
2021/05/10 10:38:36;;;;;;;12.27;11.60;;;24.20;71.50;;;;;;3538241;40;20502;-49
2021/05/10 10:41:25;;;;;;;12.73;12.03;;;24.20;72.30;;;;;;3539321;40;20498;-48
2021/05/10 10:43:52;;;;;;;13.13;12.33;;;24.20;71.60;;;;;;3540412;40;20491;-48
2021/05/10 10:46:31;;;;;;;12.30;11.70;;;24.20;71.50;;;;;;3540594;40;21464;-48
2021/05/10 10:49:28;;;;;;;13.80;12.97;;;24.20;71.50;;;;;;3538215;40;20572;-51
2021/05/10 10:51:56;;;;;;;13.77;12.97;;;24.20;71.50;;;;;;3540922;40;20482;-49
2021/05/10 10:54:27;;;;;;;12.73;12.03;;;24.20;71.60;;;;;;3540240;40;20509;-53
2021/05/10 10:56:57;;;;;;;13.03;12.13;;;24.20;71.50;;;;;;3537893;40;20580;-50
2021/05/10 10:59:30;;;;;;;13.57;12.83;;;24.20;71.50;;;;;;3538955;40;20580;-51
2021/05/10 11:02:14;;;;;;;13.30;12.70;;;24.20;71.50;;;;;;3539044;40;20751;-48
2021/05/10 11:04:42;;;;;;;13.93;13.13;;;24.20;71.50;;;;;;3531747;40;20486;-51
2021/05/10 11:07:11;;;;;;;13.80;13.10;;;24.20;71.50;;;;;;3540528;40;20493;-50
2021/05/10 11:09:54;;;;;;;13.70;12.95;;;24.20;71.40;;;;;;3541103;40;20498;-50
2021/05/10 11:12:52;;;;;;;13.57;12.73;;;24.20;71.40;;;;;;3540205;40;20220;-49
2021/05/10 11:15:45;;;;;;;12.47;11.87;;;24.20;71.40;;;;;;3538007;40;20485;-49
2021/05/10 11:18:35;;;;;;;12.97;12.27;;;24.20;71.40;;;;;;3541435;40;20482;-50
2021/05/10 11:21:05;;;;;;;13.67;12.60;;;24.20;71.40;;;;;;3541773;40;20616;-51
2021/05/10 11:23:38;;;;;;;13.40;12.70;;;24.20;71.40;;;;;;3541682;40;20470;-50
2021/05/10 11:26:08;;;;;;;12.87;12.17;;;24.20;71.30;;;;;;3541652;40;21135;-50
2021/05/10 11:28:45;;;;;;;14.23;13.30;;;24.20;71.30;;;;;;3539994;40;21124;-49
2021/05/10 11:31:13;;;;;;;13.93;13.23;;;24.20;71.30;;;;;;3541258;40;20518;-53
2021/05/10 11:34:15;;;;;;;14.50;13.47;;;24.10;71.10;;;;;;3541261;40;20897;-50
2021/05/10 11:36:52;;;;;;;53.37;48.67;;;24.10;71.10;;;;;;3541478;40;20480;-50
2021/05/10 11:39:26;;;;;;;45.17;41.57;;;24.20;71.30;;;;;;3542321;40;20480;-50
2021/05/10 11:41:59;;;;;;;39.30;35.90;;;24.20;71.30;;;;;;3541823;40;20495;-50
2021/05/10 11:44:30;;;;;;;34.43;31.70;;;24.10;71.30;;;;;;3541159;40;20548;-50
2021/05/10 11:46:58;;;;;;;32.55;29.65;;;24.10;71.30;;;;;;3540747;40;20563;-49
2021/05/10 11:49:28;;;;;;;31.33;28.60;;;24.10;71.30;;;;;;3539083;40;20227;-49
2021/05/10 11:51:57;;;;;;;26.93;25.13;;;24.10;71.40;;;;;;3539325;40;20482;-50
2021/05/10 11:54:25;;;;;;;25.85;24.05;;;24.10;71.30;;;;;;3541085;40;20571;-50
2021/05/10 11:56:55;;;;;;;25.47;23.77;;;24.10;71.30;;;;;;3540287;40;20240;-49
2021/05/10 11:59:32;;;;;;;26.55;24.60;;;24.10;71.30;;;;;;3540009;40;20523;-50
2021/05/10 12:02:01;;;;;;;24.93;23.23;;;24.10;71.30;;;;;;3540260;40;20247;-51
2021/05/10 12:04:29;;;;;;;22.57;21.13;;;24.10;71.30;;;;;;3530666;40;20496;-48
2021/05/10 12:06:57;;;;;;;20.87;19.57;;;24.10;71.30;;;;;;3542350;40;20790;-50
2021/05/10 12:09:38;;;;;;;22.53;20.97;;;24.10;71.20;;;;;;3532689;40;20579;-48
2021/05/10 12:12:07;;;;;;;21.58;20.27;;;24.10;71.30;;;;;;3537338;40;20498;-50
2021/05/10 12:14:35;;;;;;;21.77;19.90;;;24.10;71.30;;;;;;3537481;40;20254;-51
2021/05/10 12:17:07;;;;;;;23.07;21.57;;;24.10;71.30;;;;;;3540659;40;20475;-51
2021/05/10 12:19:54;;;;;;;21.83;20.33;;;24.10;71.30;;;;;;3541096;40;20580;-50
2021/05/10 12:22:23;;;;;;;21.90;20.27;;;24.10;71.40;;;;;;3540266;40;20484;-49
2021/05/10 12:25:13;;;;;;;22.40;20.70;;;24.10;71.40;;;;;;3541690;40;20830;-49
2021/05/10 12:27:57;;;;;;;22.00;20.50;;;24.10;71.40;;;;;;3540146;40;20576;-52
2021/05/10 12:30:29;;;;;;;21.10;19.73;;;24.10;71.60;;;;;;3538661;40;20253;-52
2021/05/10 12:32:58;;;;;;;21.07;19.77;;;24.10;71.60;;;;;;3528894;40;20317;-50
2021/05/10 12:35:26;;;;;;;21.10;19.83;;;24.10;71.60;;;;;;3539818;40;20926;-50
2021/05/10 12:37:55;;;;;;;21.53;20.10;;;24.10;71.70;;;;;;3539417;40;20507;-51
2021/05/10 12:40:26;;;;;;;20.33;18.93;;;24.10;71.70;;;;;;3540095;40;20506;-50
2021/05/10 12:43:13;;;;;;;20.10;18.80;;;24.10;71.70;;;;;;3540686;40;20484;-50
2021/05/10 12:45:44;;;;;;;20.07;18.63;;;24.10;71.80;;;;;;3538275;40;20475;-49
2021/05/10 12:48:16;;;;;;;19.40;18.20;;;24.10;71.80;;;;;;3540367;40;20488;-52